This is the latest recevied weather packets stored in our database for station/object EA1IDU. If no packets are shown the sender has not sent any weather packets the latest 10 day(s).
| Time | Temp. | Humidity | Pressure | Rain* | Wind** | Luminosity | Snow |
|---|---|---|---|---|---|---|---|
| 1777127448 | 19.44° C | 56% | 1018.9 hPa | 0 mm | - | - | - |
| 1777125634 | 19.44° C | 53% | 1019.1 hPa | 0 mm | - | - | - |
| 1777120250 | 18.33° C | 61% | 1019.9 hPa | 0 mm | - | - | - |
| 1777117829 | 17.78° C | 61% | 1020.3 hPa | 0 mm | - | - | - |
| 1777113675 | 16.11° C | 65% | 1021.1 hPa | 0 mm | - | - | - |
| 1777113049 | 16.11° C | 66% | 1021.1 hPa | 0 mm | - | - | - |
| 1777107080 | 13.89° C | 76% | 1021 hPa | 0 mm | - | - | - |
| 1777096229 | 10.56° C | 90% | 1020.6 hPa | 0 mm | - | - | - |
| 1777095624 | 11.11° C | 88% | 1020.4 hPa | 0 mm | - | - | - |
| 1777093869 | 10° C | 92% | 1020.2 hPa | 0 mm | - | - | - |
| 1777090240 | 10.56° C | 91% | 1020.1 hPa | 0 mm | - | - | - |
| 1777089030 | 10.56° C | 91% | 1020.2 hPa | 0 mm | - | - | - |
| 1777086065 | 10.56° C | 90% | 1020.2 hPa | 0 mm | - | - | - |
| 1777085460 | 10.56° C | 90% | 1020.3 hPa | 0 mm | - | - | - |
| 1777084250 | 10.56° C | 90% | 1020.4 hPa | 0 mm | - | - | - |
| 1777080076 | 10.56° C | 90% | 1020.6 hPa | 0 mm | - | - | - |
| 1777079471 | 10.56° C | 90% | 1020.6 hPa | 0 mm | - | - | - |
| 1777072270 | 12.22° C | 88% | 1021.3 hPa | 0 mm | - | - | - |
| 1777060233 | 14.44° C | 76% | 1020 hPa | 0 mm | - | - | - |
| 1777054242 | 18.89° C | 55% | 1018.3 hPa | 0 mm | - | - | - |
| 1777047646 | 20° C | 50% | 1018.2 hPa | 0 mm | - | - | - |
| 1777045225 | 20° C | 51% | 1018.3 hPa | 0 mm | - | - | - |
| 1777042865 | 19.44° C | 53% | 1018.4 hPa | 0 mm | - | - | - |
| 1777041674 | 19.44° C | 54% | 1018.5 hPa | 0 mm | - | - | - |
| 1777034456 | 17.22° C | 65% | 1019 hPa | 0 mm | - | - | - |
* Rain latest hour (hover to see other rain measurements)
** Current wind speed in m/s (hover to see current wind gust speed)